createdAt,value
2019-02-22T00:00:53.556Z,49.03
2019-02-22T00:03:22.037Z,34.33
2019-02-22T00:05:50.609Z,22.87
2019-02-22T00:08:19.159Z,22.77
2019-02-22T00:10:47.666Z,18.03
2019-02-22T00:13:16.229Z,20.30
2019-02-22T00:15:44.743Z,20.60
2019-02-22T00:18:13.303Z,20.97
2019-02-22T00:20:41.857Z,19.33
2019-02-22T00:23:10.343Z,23.67
2019-02-22T00:25:38.827Z,22.73
2019-02-22T00:28:07.340Z,20.70
2019-02-22T00:30:35.825Z,22.73
2019-02-22T00:33:04.406Z,23.93
2019-02-22T00:35:32.957Z,18.13
2019-02-22T00:38:01.425Z,20.93
2019-02-22T00:40:29.907Z,21.33
2019-02-22T00:42:58.407Z,23.40
2019-02-22T00:45:26.872Z,25.80
2019-02-22T00:47:55.370Z,23.03
2019-02-22T00:50:23.912Z,22.67
2019-02-22T00:52:52.487Z,19.97
2019-02-22T00:55:20.964Z,23.37
2019-02-22T00:57:49.464Z,24.07
2019-02-22T01:00:18.010Z,22.30
2019-02-22T01:02:46.571Z,23.73
2019-02-22T01:05:15.105Z,26.23
2019-02-22T01:07:44.234Z,21.20
2019-02-22T01:10:12.878Z,25.40
2019-02-22T01:12:41.413Z,24.20
2019-02-22T01:15:09.894Z,20.83
2019-02-22T01:17:38.362Z,25.87
2019-02-22T01:20:06.988Z,24.70
2019-02-22T01:22:35.537Z,25.30
2019-02-22T01:25:04.391Z,20.47
2019-02-22T01:27:32.857Z,27.90
2019-02-22T01:30:01.375Z,27.57
2019-02-22T01:32:29.927Z,21.97
2019-02-22T01:34:58.408Z,26.20
2019-02-22T01:37:26.897Z,27.87
2019-02-22T01:39:55.455Z,28.40
2019-02-22T01:42:23.919Z,23.87
2019-02-22T01:44:52.500Z,22.50
2019-02-22T01:47:21.053Z,29.10
2019-02-22T01:49:49.609Z,30.93
2019-02-22T01:52:18.061Z,29.30
2019-02-22T01:54:46.574Z,28.07
2019-02-22T01:57:15.131Z,27.83
2019-02-22T01:59:43.661Z,29.93
2019-02-22T02:02:12.163Z,31.00
2019-02-22T02:04:40.631Z,27.33
2019-02-22T02:07:09.201Z,29.80
2019-02-22T02:09:37.744Z,29.83
2019-02-22T02:12:06.247Z,26.37
2019-02-22T02:14:34.775Z,31.47
2019-02-22T02:17:03.260Z,31.23
2019-02-22T02:19:31.741Z,30.53
2019-02-22T02:22:00.307Z,29.87
2019-02-22T02:24:28.788Z,28.50
2019-02-22T02:26:57.299Z,29.37
2019-02-22T02:29:25.847Z,32.90
2019-02-22T02:31:54.406Z,25.10
2019-02-22T02:34:22.980Z,28.80
2019-02-22T02:36:51.446Z,25.90
2019-02-22T02:39:19.940Z,27.50
2019-02-22T02:41:48.491Z,26.27
2019-02-22T02:44:16.996Z,28.20
2019-02-22T02:46:45.557Z,27.33
2019-02-22T02:49:14.100Z,29.57
2019-02-22T02:51:42.570Z,29.23
2019-02-22T02:54:11.062Z,31.87
2019-02-22T02:56:39.543Z,27.43
2019-02-22T02:59:08.137Z,29.70
2019-02-22T03:01:36.685Z,27.07
2019-02-22T03:04:05.298Z,34.47
2019-02-22T03:06:38.170Z,27.33
2019-02-22T03:09:08.699Z,28.90
2019-02-22T03:11:37.224Z,27.87
2019-02-22T03:14:05.835Z,30.63
2019-02-22T03:16:34.316Z,25.57
2019-02-22T03:19:02.851Z,32.90
2019-02-22T03:21:31.402Z,30.83
2019-02-22T03:23:59.854Z,28.03
2019-02-22T03:26:28.408Z,28.40
2019-02-22T03:28:56.891Z,27.73
2019-02-22T03:31:28.113Z,25.63
2019-02-22T03:33:56.610Z,28.20
2019-02-22T03:36:25.162Z,23.67
2019-02-22T03:38:53.700Z,26.07
2019-02-22T03:41:32.217Z,31.60
2019-02-22T03:43:55.169Z,24.50
2019-02-22T03:46:23.634Z,25.73
2019-02-22T03:48:52.118Z,26.93
2019-02-22T03:51:20.582Z,25.53
2019-02-22T03:53:49.845Z,28.47
2019-02-22T03:56:18.379Z,26.47
2019-02-22T03:58:46.958Z,26.43
2019-02-22T04:01:15.518Z,25.27
2019-02-22T04:03:44.075Z,29.23
2019-02-22T04:06:12.527Z,46.93
2019-02-22T04:08:41.015Z,36.30
2019-02-22T04:11:09.556Z,28.77
2019-02-22T04:13:38.050Z,27.17
2019-02-22T04:16:06.612Z,28.87
2019-02-22T04:18:35.166Z,26.73
2019-02-22T04:21:03.672Z,25.60
2019-02-22T04:23:32.193Z,25.53
2019-02-22T04:26:00.701Z,28.40
2019-02-22T04:28:29.255Z,28.83
2019-02-22T04:30:57.828Z,27.43
2019-02-22T04:33:26.312Z,30.07
2019-02-22T04:35:54.882Z,27.17
2019-02-22T04:38:23.414Z,27.23
2019-02-22T04:40:51.891Z,28.13
2019-02-22T04:43:20.377Z,26.27
2019-02-22T04:45:48.946Z,29.50
2019-02-22T04:48:17.481Z,29.87
2019-02-22T04:50:45.956Z,29.60
2019-02-22T04:53:14.528Z,27.87
2019-02-22T04:55:43.019Z,26.80
2019-02-22T04:58:11.583Z,25.93
2019-02-22T05:00:40.138Z,32.77
2019-02-22T05:03:08.716Z,29.77
2019-02-22T05:05:37.269Z,25.43
2019-02-22T05:08:05.843Z,26.60
2019-02-22T05:10:34.332Z,26.80
2019-02-22T05:13:02.836Z,25.30
2019-02-22T05:15:31.372Z,28.17
2019-02-22T05:17:59.855Z,29.60
2019-02-22T05:20:28.322Z,31.30
2019-02-22T05:23:03.827Z,26.90
2019-02-22T05:25:26.996Z,30.07
2019-02-22T05:27:55.508Z,32.03
2019-02-22T05:30:24.056Z,30.27
2019-02-22T05:32:52.634Z,32.00
2019-02-22T05:35:21.173Z,30.47
2019-02-22T05:37:49.637Z,28.80
2019-02-22T05:40:18.146Z,29.33
2019-02-22T05:42:46.685Z,29.60
2019-02-22T05:45:15.267Z,29.50
2019-02-22T05:47:43.811Z,30.93
2019-02-22T05:50:15.225Z,29.40
2019-02-22T05:52:43.843Z,30.37
2019-02-22T05:55:12.312Z,29.00
2019-02-22T05:57:40.773Z,32.13
2019-02-22T06:00:09.547Z,28.33
2019-02-22T06:02:38.080Z,27.97
2019-02-22T06:05:07.122Z,27.60
2019-02-22T06:07:35.652Z,28.23
2019-02-22T06:10:06.199Z,31.07
2019-02-22T06:12:35.144Z,28.27
2019-02-22T06:15:04.413Z,25.90
2019-02-22T06:17:32.941Z,30.50
2019-02-22T06:20:01.438Z,27.53
2019-02-22T06:22:30.163Z,27.37
2019-02-22T06:24:58.739Z,28.03
2019-02-22T06:27:27.336Z,26.03
2019-02-22T06:29:55.911Z,25.80
2019-02-22T06:32:24.403Z,27.13
2019-02-22T06:34:52.869Z,25.87
2019-02-22T06:37:21.391Z,31.93
2019-02-22T06:39:49.929Z,27.20
2019-02-22T06:42:18.442Z,26.37
2019-02-22T06:44:47.042Z,22.43
2019-02-22T06:47:15.627Z,24.33
2019-02-22T06:49:44.608Z,25.13
2019-02-22T06:52:13.240Z,25.97
2019-02-22T06:54:41.739Z,23.40
2019-02-22T06:57:10.278Z,22.53
2019-02-22T06:59:38.767Z,23.83
2019-02-22T07:02:07.243Z,21.90
2019-02-22T07:04:35.730Z,24.87
2019-02-22T07:07:04.220Z,24.93
2019-02-22T07:09:32.814Z,28.60
2019-02-22T07:12:02.981Z,22.73
2019-02-22T07:14:31.481Z,25.53
2019-02-22T07:17:00.027Z,23.60
2019-02-22T07:19:28.521Z,25.77
2019-02-22T07:21:57.077Z,24.07
2019-02-22T07:24:25.630Z,24.97
2019-02-22T07:26:54.084Z,26.93
2019-02-22T07:29:22.622Z,25.63
2019-02-22T07:31:51.189Z,22.33
2019-02-22T07:34:19.754Z,22.50
2019-02-22T07:36:48.286Z,23.63
2019-02-22T07:39:27.419Z,20.67
2019-02-22T07:41:49.956Z,23.57
2019-02-22T07:44:18.480Z,21.70
2019-02-22T07:46:46.983Z,23.40
2019-02-22T07:49:23.630Z,21.80
2019-02-22T07:51:52.184Z,23.27
2019-02-22T07:54:20.651Z,18.40
2019-02-22T07:56:49.163Z,21.23
2019-02-22T07:59:17.694Z,20.83
2019-02-22T08:01:48.005Z,22.40
2019-02-22T08:04:16.382Z,20.80
2019-02-22T08:06:44.889Z,20.07
2019-02-22T08:09:13.446Z,20.37
2019-02-22T08:11:41.950Z,20.00
2019-02-22T08:14:10.490Z,20.00
2019-02-22T08:16:39.040Z,19.83
2019-02-22T08:19:07.516Z,20.43
2019-02-22T08:21:35.992Z,20.07
2019-02-22T08:24:04.475Z,20.67
2019-02-22T08:26:33.052Z,18.63
2019-02-22T08:29:01.623Z,18.70
2019-02-22T08:31:30.172Z,21.63
2019-02-22T08:33:58.730Z,18.43
2019-02-22T08:36:27.194Z,18.13
2019-02-22T08:38:55.740Z,19.17
2019-02-22T08:41:24.223Z,19.00
2019-02-22T08:43:52.846Z,16.40
2019-02-22T08:46:21.308Z,18.37
2019-02-22T08:48:49.816Z,16.00
2019-02-22T08:51:18.304Z,19.40
2019-02-22T08:53:46.888Z,17.17
2019-02-22T08:56:15.418Z,15.30
2019-02-22T08:58:43.986Z,15.57
2019-02-22T09:01:12.460Z,13.80
2019-02-22T09:03:49.971Z,14.30
2019-02-22T09:06:11.142Z,15.17
2019-02-22T09:08:39.634Z,18.87
2019-02-22T09:11:08.262Z,15.23
2019-02-22T09:13:43.697Z,16.10
2019-02-22T09:16:06.937Z,16.80
2019-02-22T09:18:35.416Z,15.10
2019-02-22T09:21:04.040Z,15.47
2019-02-22T09:23:32.513Z,14.57
2019-02-22T09:26:01.067Z,12.70
2019-02-22T09:28:29.545Z,9.80
2019-02-22T09:30:58.104Z,9.93
2019-02-22T09:33:26.638Z,8.57
2019-02-22T09:35:55.122Z,7.70
2019-02-22T09:38:23.605Z,6.57
2019-02-22T09:40:52.159Z,5.80
2019-02-22T09:43:20.628Z,5.97
2019-02-22T09:45:49.193Z,6.47
2019-02-22T09:48:17.740Z,6.03
2019-02-22T09:50:46.264Z,5.87
2019-02-22T09:53:14.749Z,7.47
2019-02-22T09:55:43.225Z,6.50
2019-02-22T09:58:11.718Z,6.50
2019-02-22T10:00:40.214Z,6.97
2019-02-22T10:03:08.686Z,6.50
2019-02-22T10:05:37.150Z,6.53
2019-02-22T10:08:05.885Z,5.60
2019-02-22T10:10:34.402Z,5.93
2019-02-22T10:13:02.913Z,6.17
2019-02-22T10:15:31.389Z,5.90
2019-02-22T10:17:59.955Z,5.37
2019-02-22T10:20:28.506Z,4.50
2019-02-22T10:22:57.060Z,4.37
2019-02-22T10:25:25.607Z,3.90
2019-02-22T10:27:54.065Z,4.00
2019-02-22T10:30:22.567Z,3.97
2019-02-22T10:32:51.047Z,3.60
2019-02-22T10:35:19.690Z,4.37
2019-02-22T10:37:48.302Z,4.33
2019-02-22T10:40:16.781Z,4.13
2019-02-22T10:42:45.237Z,3.97
2019-02-22T10:45:13.719Z,3.57
2019-02-22T10:47:43.105Z,4.37
2019-02-22T10:50:11.573Z,4.33
2019-02-22T10:52:40.037Z,3.57
2019-02-22T10:55:11.097Z,2.80
2019-02-22T10:57:39.666Z,2.90
2019-02-22T11:00:13.401Z,3.57
2019-02-22T11:02:41.903Z,3.03
2019-02-22T11:05:10.853Z,3.47
2019-02-22T11:07:39.413Z,3.30
2019-02-22T11:10:10.418Z,3.20
2019-02-22T11:12:38.962Z,4.20
2019-02-22T11:15:09.968Z,2.83
2019-02-22T11:17:38.515Z,3.43
2019-02-22T11:20:11.425Z,3.13
2019-02-22T11:22:40.000Z,3.10
2019-02-22T11:25:13.052Z,3.23
2019-02-22T11:27:41.622Z,3.20
2019-02-22T11:30:12.983Z,2.87
2019-02-22T11:32:41.652Z,3.33
2019-02-22T11:35:10.639Z,3.37
2019-02-22T11:37:39.125Z,3.50
2019-02-22T11:40:11.445Z,3.17
2019-02-22T11:42:39.899Z,2.50
2019-02-22T11:45:09.618Z,2.70
2019-02-22T11:47:38.343Z,2.80
2019-02-22T11:50:10.934Z,3.17
2019-02-22T11:52:39.486Z,3.30
2019-02-22T11:55:09.391Z,2.97
2019-02-22T11:57:37.845Z,2.73
2019-02-22T12:00:18.958Z,3.03
2019-02-22T12:02:47.985Z,4.63
2019-02-22T12:05:16.449Z,4.53
2019-02-22T12:07:44.933Z,3.33
2019-02-22T12:10:14.249Z,4.00
2019-02-22T12:12:45.793Z,3.60
2019-02-22T12:15:14.782Z,6.23
2019-02-22T12:17:43.311Z,3.57
2019-02-22T12:20:12.107Z,3.30
2019-02-22T12:22:40.576Z,3.43
2019-02-22T12:25:13.117Z,4.40
2019-02-22T12:27:41.635Z,4.90
2019-02-22T12:30:13.081Z,4.33
2019-02-22T12:32:41.637Z,4.33
2019-02-22T12:35:10.191Z,4.37
2019-02-22T12:37:38.752Z,3.63
2019-02-22T12:40:09.741Z,5.13
2019-02-22T12:42:38.380Z,4.27
2019-02-22T12:45:09.538Z,4.13
2019-02-22T12:47:38.037Z,4.40
2019-02-22T12:50:11.504Z,4.37
2019-02-22T12:52:40.141Z,4.53
2019-02-22T12:55:09.546Z,4.53
2019-02-22T12:57:38.143Z,3.43
2019-02-22T13:00:14.803Z,3.43
2019-02-22T13:02:43.265Z,3.60
2019-02-22T13:05:24.168Z,4.47
2019-02-22T13:07:53.228Z,3.30
2019-02-22T13:10:21.787Z,3.53
2019-02-22T13:12:50.343Z,3.77
2019-02-22T13:15:18.889Z,4.43
2019-02-22T13:17:47.350Z,5.27
2019-02-22T13:20:15.851Z,3.87
2019-02-22T13:22:44.391Z,3.10
2019-02-22T13:25:13.023Z,3.80
2019-02-22T13:27:41.561Z,3.50
2019-02-22T13:30:14.939Z,2.93
2019-02-22T13:32:43.491Z,3.27
2019-02-22T13:35:12.114Z,4.23
2019-02-22T13:37:40.783Z,2.83
2019-02-22T13:40:14.298Z,3.77
2019-02-22T13:42:42.932Z,4.27
2019-02-22T13:45:12.218Z,3.80
2019-02-22T13:47:40.796Z,4.63
2019-02-22T13:50:15.412Z,4.27
2019-02-22T13:52:43.997Z,4.70
2019-02-22T13:55:13.086Z,4.07
2019-02-22T13:57:41.593Z,5.37
2019-02-22T14:00:18.258Z,4.90
2019-02-22T14:02:46.813Z,4.30
2019-02-22T14:05:15.277Z,5.83
2019-02-22T14:07:54.032Z,3.67
2019-02-22T14:10:22.726Z,5.47
2019-02-22T14:12:51.275Z,4.30
2019-02-22T14:15:19.802Z,4.30
2019-02-22T14:17:48.415Z,3.40
2019-02-22T14:20:17.005Z,4.10
2019-02-22T14:22:46.222Z,4.30
2019-02-22T14:25:14.702Z,4.23
2019-02-22T14:27:43.285Z,3.37
2019-02-22T14:30:16.663Z,3.70
2019-02-22T14:32:45.480Z,4.03
2019-02-22T14:35:14.027Z,5.80
2019-02-22T14:37:42.496Z,4.90
2019-02-22T14:40:13.120Z,5.67
2019-02-22T14:42:41.658Z,4.57
2019-02-22T14:45:11.465Z,5.43
2019-02-22T14:47:40.054Z,4.80
2019-02-22T14:50:14.248Z,4.43
2019-02-22T14:52:42.704Z,3.43
2019-02-22T14:55:11.270Z,4.10
2019-02-22T14:57:39.823Z,3.53
2019-02-22T15:00:11.782Z,3.73
2019-02-22T15:02:40.254Z,3.43
2019-02-22T15:05:10.034Z,3.70
2019-02-22T15:07:38.562Z,3.43
2019-02-22T15:10:09.089Z,4.50
2019-02-22T15:12:37.648Z,3.27
2019-02-22T15:15:09.216Z,4.63
2019-02-22T15:17:39.362Z,4.37
2019-02-22T15:20:08.890Z,3.77
2019-02-22T15:22:37.472Z,3.87
2019-02-22T15:25:11.185Z,4.37
2019-02-22T15:27:39.678Z,5.90
2019-02-22T15:30:10.780Z,5.73
2019-02-22T15:32:39.335Z,5.73
2019-02-22T15:35:15.520Z,5.20
2019-02-22T15:37:44.011Z,5.73
2019-02-22T15:40:13.447Z,5.10
2019-02-22T15:42:42.026Z,6.10
2019-02-22T15:45:15.209Z,5.60
2019-02-22T15:47:43.759Z,5.50
2019-02-22T15:50:14.487Z,5.20
2019-02-22T15:52:43.394Z,5.97
2019-02-22T15:55:14.288Z,6.60
2019-02-22T15:57:42.201Z,7.60
2019-02-22T16:00:22.887Z,6.37
2019-02-22T16:02:51.424Z,6.60
2019-02-22T16:05:21.521Z,6.83
2019-02-22T16:07:50.114Z,6.20
2019-02-22T16:10:18.714Z,6.73
2019-02-22T16:12:47.179Z,5.70
2019-02-22T16:15:16.447Z,6.53
2019-02-22T16:17:44.928Z,6.47
2019-02-22T16:20:14.119Z,8.30
2019-02-22T16:22:42.706Z,6.00
2019-02-22T16:25:18.989Z,6.43
2019-02-22T16:27:41.384Z,7.00
2019-02-22T16:30:13.075Z,6.03
2019-02-22T16:32:41.533Z,6.97
2019-02-22T16:35:10.029Z,6.40
2019-02-22T16:37:38.563Z,5.53
2019-02-22T16:40:09.706Z,5.70
2019-02-22T16:42:38.277Z,5.50
2019-02-22T16:45:11.457Z,5.17
2019-02-22T16:47:40.641Z,5.50
2019-02-22T16:50:13.910Z,5.47
2019-02-22T16:52:45.091Z,6.43
2019-02-22T16:55:14.619Z,6.17
2019-02-22T16:57:43.234Z,5.03
2019-02-22T17:00:13.951Z,5.07
2019-02-22T17:02:42.592Z,5.67
2019-02-22T17:05:13.482Z,5.43
2019-02-22T17:07:41.979Z,5.33
2019-02-22T17:10:11.395Z,7.83
2019-02-22T17:12:39.951Z,5.80
2019-02-22T17:15:11.117Z,5.47
2019-02-22T17:17:39.609Z,4.97
2019-02-22T17:20:10.860Z,4.57
2019-02-22T17:22:39.362Z,5.17
2019-02-22T17:25:10.843Z,4.87
2019-02-22T17:27:39.366Z,4.90
2019-02-22T17:30:15.789Z,5.07
2019-02-22T17:32:44.247Z,5.00
2019-02-22T17:35:12.807Z,4.83
2019-02-22T17:37:41.280Z,5.07
2019-02-22T17:40:12.404Z,5.50
2019-02-22T17:42:40.946Z,6.50
2019-02-22T17:45:09.499Z,6.73
2019-02-22T17:47:38.065Z,5.77
2019-02-22T17:50:10.535Z,6.13
2019-02-22T17:52:38.983Z,7.77
2019-02-22T17:55:09.282Z,7.77
2019-02-22T17:57:37.884Z,7.20
2019-02-22T18:00:11.249Z,5.73
2019-02-22T18:02:39.731Z,5.90
2019-02-22T18:05:08.361Z,5.93
2019-02-22T18:07:36.891Z,5.80
2019-02-22T18:10:08.121Z,6.43
2019-02-22T18:12:36.707Z,7.27
2019-02-22T18:15:08.071Z,6.83
2019-02-22T18:17:36.573Z,6.03
2019-02-22T18:20:07.577Z,7.03
2019-02-22T18:22:36.154Z,7.10
2019-02-22T18:25:09.056Z,8.00
2019-02-22T18:27:37.611Z,7.90
2019-02-22T18:30:09.074Z,6.83
2019-02-22T18:32:37.550Z,7.87
2019-02-22T18:35:07.071Z,8.43
2019-02-22T18:37:35.653Z,7.50
2019-02-22T18:40:07.090Z,7.50
2019-02-22T18:42:35.597Z,7.93
2019-02-22T18:45:05.258Z,8.20
2019-02-22T18:47:33.762Z,8.17
2019-02-22T18:50:02.226Z,7.47
2019-02-22T18:52:30.762Z,8.50
2019-02-22T18:54:59.300Z,7.80
2019-02-22T18:57:27.874Z,6.93
2019-02-22T18:59:56.369Z,7.57
2019-02-22T19:02:24.921Z,8.50
2019-02-22T19:04:53.473Z,9.83
2019-02-22T19:07:22.002Z,11.07
2019-02-22T19:09:50.503Z,12.10
2019-02-22T19:12:19.053Z,9.23
2019-02-22T19:14:47.625Z,11.60
2019-02-22T19:17:16.079Z,9.93
2019-02-22T19:19:44.581Z,12.07
2019-02-22T19:22:13.063Z,10.33
2019-02-22T19:24:41.622Z,11.10
2019-02-22T19:27:10.108Z,11.40
2019-02-22T19:29:38.751Z,10.37
2019-02-22T19:32:07.280Z,11.13
2019-02-22T19:34:35.739Z,9.77
2019-02-22T19:37:04.230Z,10.13
2019-02-22T19:39:32.932Z,11.83
2019-02-22T19:42:01.466Z,12.07
2019-02-22T19:44:29.961Z,12.70
2019-02-22T19:46:58.553Z,13.70
2019-02-22T19:49:27.098Z,12.83
2019-02-22T19:51:55.678Z,12.03
2019-02-22T19:54:24.159Z,12.07
2019-02-22T19:56:52.723Z,12.03
2019-02-22T19:59:21.214Z,13.13
2019-02-22T20:01:49.778Z,13.53
2019-02-22T20:04:18.264Z,13.53
2019-02-22T20:06:47.078Z,12.07
2019-02-22T20:09:15.614Z,13.47
2019-02-22T20:11:44.130Z,14.70
2019-02-22T20:14:12.627Z,13.07
2019-02-22T20:16:41.166Z,14.80
2019-02-22T20:19:09.770Z,13.87
2019-02-22T20:21:38.336Z,13.10
2019-02-22T20:24:06.890Z,14.17
2019-02-22T20:26:35.363Z,12.97
2019-02-22T20:29:03.888Z,14.77
2019-02-22T20:31:32.466Z,15.00
2019-02-22T20:34:00.991Z,14.53
2019-02-22T20:36:29.491Z,12.20
2019-02-22T20:38:58.071Z,14.17
2019-02-22T20:41:26.541Z,12.87
2019-02-22T20:43:55.042Z,13.13
2019-02-22T20:46:23.606Z,12.03
2019-02-22T20:49:00.614Z,13.23
2019-02-22T20:51:22.370Z,12.73
2019-02-22T20:53:50.916Z,14.10
2019-02-22T20:56:19.407Z,14.07
2019-02-22T20:58:47.892Z,13.63
2019-02-22T21:01:16.488Z,12.73
2019-02-22T21:03:45.014Z,14.03
2019-02-22T21:06:13.510Z,12.80
2019-02-22T21:08:42.089Z,12.73
2019-02-22T21:11:10.602Z,12.27
2019-02-22T21:13:39.193Z,13.73
2019-02-22T21:16:07.723Z,13.03
2019-02-22T21:18:36.200Z,14.07
2019-02-22T21:21:04.709Z,14.50
2019-02-22T21:23:33.268Z,13.07
2019-02-22T21:26:01.730Z,13.37
2019-02-22T21:28:30.222Z,11.33
2019-02-22T21:30:58.691Z,12.47
2019-02-22T21:33:27.178Z,13.53
2019-02-22T21:35:55.656Z,11.77
2019-02-22T21:38:24.152Z,13.00
2019-02-22T21:40:52.629Z,19.10
2019-02-22T21:43:21.150Z,18.53
2019-02-22T21:45:49.690Z,18.13
2019-02-22T21:48:27.119Z,16.10
2019-02-22T21:50:48.382Z,17.63
2019-02-22T21:53:16.876Z,13.70
2019-02-22T21:55:45.341Z,14.97
2019-02-22T21:58:13.848Z,14.13
2019-02-22T22:00:42.331Z,12.40
2019-02-22T22:03:10.873Z,12.53
2019-02-22T22:05:39.348Z,10.93
2019-02-22T22:08:07.848Z,11.80
2019-02-22T22:10:36.432Z,12.87
2019-02-22T22:13:04.976Z,11.90
2019-02-22T22:15:33.539Z,12.60
2019-02-22T22:18:02.015Z,12.33
2019-02-22T22:20:30.610Z,12.00
2019-02-22T22:22:59.155Z,11.80
2019-02-22T22:25:27.759Z,13.63
2019-02-22T22:27:56.262Z,11.77
2019-02-22T22:30:24.819Z,12.80
2019-02-22T22:32:53.301Z,13.40
2019-02-22T22:35:21.889Z,12.70
2019-02-22T22:37:50.420Z,12.00
2019-02-22T22:40:18.949Z,12.60
2019-02-22T22:42:47.518Z,17.93
2019-02-22T22:45:17.615Z,12.77
2019-02-22T22:47:46.247Z,10.90
2019-02-22T22:50:16.694Z,10.27
2019-02-22T22:52:45.261Z,11.07
2019-02-22T22:55:13.740Z,10.00
2019-02-22T22:57:42.285Z,11.17
2019-02-22T23:00:16.700Z,10.83
2019-02-22T23:02:45.258Z,10.60
2019-02-22T23:05:13.815Z,11.00
2019-02-22T23:07:42.364Z,12.83
2019-02-22T23:10:10.852Z,10.83
2019-02-22T23:12:39.386Z,13.03
2019-02-22T23:15:07.960Z,12.97
2019-02-22T23:17:36.511Z,12.60
2019-02-22T23:20:06.957Z,12.43
2019-02-22T23:22:35.498Z,11.30
2019-02-22T23:25:05.098Z,11.40
2019-02-22T23:27:33.559Z,10.37
2019-02-22T23:30:02.061Z,10.33
2019-02-22T23:32:30.611Z,11.27
2019-02-22T23:34:59.097Z,11.17
2019-02-22T23:37:27.570Z,11.63
2019-02-22T23:39:56.051Z,9.97
2019-02-22T23:42:24.509Z,10.07
2019-02-22T23:44:53.007Z,11.17
2019-02-22T23:47:21.545Z,10.50
2019-02-22T23:49:50.044Z,9.83
2019-02-22T23:52:18.580Z,9.67
2019-02-22T23:54:47.075Z,11.00
2019-02-22T23:57:15.573Z,9.93
2019-02-22T23:59:44.113Z,10.90
